• Join FlightAware (Why Join?)
  • Login
  • US Flag GB Flag 
09:03 EDT


 

Airport Tracker/Info


-or-


 

Live Flight TrackerFlight Track Log ✈ JBU1329 ✈ 15-Apr-2013 ✈ KBOS - KBWI

Flight Track Log - Related Links

Times and Time Zones

All times are in EDT time to prevent confusion due to time zone crossing. See the JBU1329 flight status page for this flight to view local times or setup timezone preferences in your user account.

Time Position Orientation Groundspeed Altitude Reporting Facility
EDT Latitude Longitude Course Direction KTS MPH feet Rate Location/Type
08:28 42.3667 -70.9833 240° Southwest 172 198 800  Level KA90
08:29 42.3667 -70.9333 90° East 172 198 2,000 2,100 Climbing KA90
08:30 42.3833 -70.8500 75° East 223 257 4,600 2,520 Climbing KA90
08:32 42.2975 -70.7205 228° Southwest  Level FlightAware Approximate
08:32 42.3753 -70.7453 96° East 277 319 7,800  Level Boston Center
08:33 42.2340 -70.8157 228° Southwest  Level FlightAware Approximate
08:33 42.2856 -70.7450 180° South 202 232 11,300  Level Boston Center
08:34 42.1863 -70.9265 240° Southwest  Level FlightAware Approximate
08:34 42.2456 -70.8583 245° Southwest 210 242 13,200  Level Boston Center
08:35 42.2264 -70.9878 259° West 309 356 16,100 2,460 Climbing Boston Center
08:36 42.2053 -71.1200 258° West 346 398 18,100 1,920 Climbing Boston Center
08:37 42.1900 -71.2492 261° West 378 435 20,000 1,860 Climbing Boston Center
08:38 42.1683 -71.3869 258° West 383 441 21,900 1,860 Climbing Boston Center
08:39 42.1444 -71.5300 257° West 388 447 23,800 1,620 Climbing Boston Center
08:40 42.1144 -71.6733 254° West 393 452 25,300 1,140 Climbing Boston Center
08:41 42.0881 -71.8192 256° West 398 458 26,200 1,320 Climbing Boston Center
08:42 42.0639 -71.9703 258° West 398 458 28,000 900 Climbing Boston Center
08:43 42.0394 -72.1158 257° West 403 464 28,000  Level Boston Center
08:44 41.9792 -72.2475 238° Southwest 403 464 28,000  Level Boston Center
08:45 41.9128 -72.3758 235° Southwest 414 476 28,000  Level Boston Center
08:46 41.8481 -72.5014 235° Southwest 419 482 28,000  Level Boston Center
08:47 41.7814 -72.6294 235° Southwest 424 488 28,000  Level Boston Center
08:48 41.7122 -72.7600 235° Southwest 424 488 28,000  Level Boston Center
08:49 41.6472 -72.8844 235° Southwest 419 482 28,000  Level Boston Center
08:50 41.5800 -73.0117 235° Southwest 419 482 28,000  Level Boston Center
08:51 41.5167 -73.1386 236° Southwest 419 482 28,000  Level Boston Center
08:52 41.4492 -73.2681 235° Southwest 424 488 28,000  Level Boston Center
08:54 41.3303 -73.4928 235° Southwest 413 475 28,000  Level New York Center
08:55 41.2628 -73.6169 234° Southwest 418 481 28,000 -120 Level New York Center
08:55 41.1889 -73.7406 232° Southwest 423 487 27,800 -780 Descending New York Center
08:56 41.1169 -73.8614 232° Southwest 428 493 26,500 -900 Descending New York Center
08:58 41.0450 -73.9844 232° Southwest 428 493 26,000 -300 Descending New York Center
08:59 40.9686 -74.1100 231° Southwest 433 498 26,000  Level New York Center
08:59 40.8856 -74.2403 230° Southwest 433 498 26,000  Level New York Center
09:00 40.8219 -74.3522 233° Southwest 433 498 26,000  Level New York Center
09:02 40.7428 -74.4822 231° Southwest 433 498 26,000  Level New York Center
09:02 40.6769 -74.5908 231° Southwest 433 498 26,000 -960 Level New York Center
09:03 40.5997 -74.7178 231° Southwest 428 493 24,200 -1,860 Descending New York Center
09:04 40.5339 -74.8150 228° Southwest 410 472 22,300 -2,040 Descending New York Center
09:06 40.4553 -74.9222 226° Southwest 391 450 20,100 -2,100 Descending New York Center
09:07 40.3850 -75.0244 228° Southwest 380 437 18,100 -1,080 Descending New York Center
09:08 40.3236 -75.1078 226° Southwest 375 432 18,000 -60 Descending New York Center
09:08 40.2553 -75.2067 228° Southwest 370 426 18,000  Level New York Center
09:10 40.1761 -75.3131 226° Southwest 375 432 18,000  Level New York Center
09:11 40.1056 -75.4117 227° Southwest 381 438 18,000  Level New York Center
09:11 40.0350 -75.5100 227° Southwest 381 438 18,000  Level New York Center
09:13 39.9644 -75.6028 225° Southwest 373 429 18,000  Level New York Center
09:13 39.8978 -75.7064 230° Southwest 373 429 18,100 -720 Climbing New York Center
09:14 39.8408 -75.8186 237° Southwest 381 438 16,600 -1,800 Descending New York Center
09:16 39.7500 -75.9833 234° Southwest 349 402 13,500 -1,860 Descending Potomac TRACON
09:17 39.7000 -76.0833 237° Southwest 324 373 12,000 -900 Descending Potomac TRACON
09:18 39.6667 -76.1667 243° Southwest 294 338 11,700 -1,200 Descending Potomac TRACON
09:20 39.5833 -76.3667 242° Southwest 278 320 8,400 -1,500 Descending Potomac TRACON
09:21 39.5500 -76.4500 243° Southwest 268 308 7,300 -1,320 Descending Potomac TRACON
09:22 39.5167 -76.5333 243° Southwest 260 299 5,800 -1,200 Descending Potomac TRACON
09:23 39.4833 -76.6000 237° Southwest 253 291 5,000 -480 Descending Potomac TRACON
09:24 39.4500 -76.6833 243° Southwest 255 293 5,000  Level Potomac TRACON
09:25 39.4167 -76.7500 237° Southwest 249 287 5,000  Level Potomac TRACON
09:26 39.3667 -76.8167 226° Southwest 252 290 5,000 -720 Level Potomac TRACON
09:27 39.3000 -76.8500 201° Southwest 245 282 3,700 -1,020 Descending Potomac TRACON
09:28 39.2333 -76.8667 191° South 242 278 3,000 -420 Descending Potomac TRACON
09:29 39.1833 -76.8500 166° South 186 214 2,900 -600 Descending Potomac TRACON
09:30 39.1833 -76.8000 90° East 170 196 1,900 -960 Descending Potomac TRACON
09:31 39.1833 -76.7500 90° East 133 153 1,100 -780 Descending Potomac TRACON
09:32 39.1833 -76.7000 90° East 130 150 400 -720 Descending Potomac TRACON